sensor_id;sensor_type;location;lat;lon;timestamp;temperature;humidity
19039;DHT22;9652;49.014;12.052;2023-11-19T00:01:49;9.80;81.60
19039;DHT22;9652;49.014;12.052;2023-11-19T00:04:16;9.70;81.60
19039;DHT22;9652;49.014;12.052;2023-11-19T00:06:43;9.70;81.60
19039;DHT22;9652;49.014;12.052;2023-11-19T00:09:10;9.70;82.00
19039;DHT22;9652;49.014;12.052;2023-11-19T00:11:37;9.70;81.60
19039;DHT22;9652;49.014;12.052;2023-11-19T00:14:04;9.80;81.60
19039;DHT22;9652;49.014;12.052;2023-11-19T00:16:35;9.70;81.60
19039;DHT22;9652;49.014;12.052;2023-11-19T00:19:02;9.80;81.70
19039;DHT22;9652;49.014;12.052;2023-11-19T00:21:31;9.70;82.40
19039;DHT22;9652;49.014;12.052;2023-11-19T00:23:58;9.80;81.70
19039;DHT22;9652;49.014;12.052;2023-11-19T00:26:26;9.70;81.70
19039;DHT22;9652;49.014;12.052;2023-11-19T00:28:53;9.70;81.60
19039;DHT22;9652;49.014;12.052;2023-11-19T00:31:21;9.90;81.80
19039;DHT22;9652;49.014;12.052;2023-11-19T00:33:50;9.70;81.70
19039;DHT22;9652;49.014;12.052;2023-11-19T00:36:17;9.70;81.70
19039;DHT22;9652;49.014;12.052;2023-11-19T00:38:44;9.60;81.70
19039;DHT22;9652;49.014;12.052;2023-11-19T00:41:11;9.70;82.00
19039;DHT22;9652;49.014;12.052;2023-11-19T00:43:40;9.80;82.10
19039;DHT22;9652;49.014;12.052;2023-11-19T00:46:07;9.70;82.10
19039;DHT22;9652;49.014;12.052;2023-11-19T00:48:36;9.70;82.20
19039;DHT22;9652;49.014;12.052;2023-11-19T00:51:06;9.80;82.30
19039;DHT22;9652;49.014;12.052;2023-11-19T00:53:33;9.70;82.30
19039;DHT22;9652;49.014;12.052;2023-11-19T00:56:00;9.70;82.30
19039;DHT22;9652;49.014;12.052;2023-11-19T00:58:27;9.70;82.20
19039;DHT22;9652;49.014;12.052;2023-11-19T01:00:55;9.70;82.30
19039;DHT22;9652;49.014;12.052;2023-11-19T01:03:22;9.80;82.30
19039;DHT22;9652;49.014;12.052;2023-11-19T01:05:49;9.80;82.30
19039;DHT22;9652;49.014;12.052;2023-11-19T01:08:19;9.70;82.30
19039;DHT22;9652;49.014;12.052;2023-11-19T01:10:46;9.80;82.30
19039;DHT22;9652;49.014;12.052;2023-11-19T01:13:13;9.80;82.30
19039;DHT22;9652;49.014;12.052;2023-11-19T01:15:40;9.80;82.30
19039;DHT22;9652;49.014;12.052;2023-11-19T01:18:07;9.80;82.40
19039;DHT22;9652;49.014;12.052;2023-11-19T01:20:36;9.80;82.50
19039;DHT22;9652;49.014;12.052;2023-11-19T01:23:03;9.80;82.50
19039;DHT22;9652;49.014;12.052;2023-11-19T01:25:32;9.80;82.30
19039;DHT22;9652;49.014;12.052;2023-11-19T01:27:59;9.80;82.20
19039;DHT22;9652;49.014;12.052;2023-11-19T01:30:28;9.80;82.20
19039;DHT22;9652;49.014;12.052;2023-11-19T01:32:55;9.80;82.10
19039;DHT22;9652;49.014;12.052;2023-11-19T01:35:22;9.80;82.10
19039;DHT22;9652;49.014;12.052;2023-11-19T01:37:49;9.70;81.90
19039;DHT22;9652;49.014;12.052;2023-11-19T01:40:21;9.70;81.90
19039;DHT22;9652;49.014;12.052;2023-11-19T01:42:50;9.70;82.00
19039;DHT22;9652;49.014;12.052;2023-11-19T01:45:26;9.90;82.10
19039;DHT22;9652;49.014;12.052;2023-11-19T01:47:56;9.70;82.10
19039;DHT22;9652;49.014;12.052;2023-11-19T01:50:25;9.70;82.10
19039;DHT22;9652;49.014;12.052;2023-11-19T01:52:54;9.70;82.10
19039;DHT22;9652;49.014;12.052;2023-11-19T01:55:24;9.70;82.20
19039;DHT22;9652;49.014;12.052;2023-11-19T01:57:58;9.80;82.30
19039;DHT22;9652;49.014;12.052;2023-11-19T02:00:27;9.70;82.30
19039;DHT22;9652;49.014;12.052;2023-11-19T02:02:55;9.70;82.30
19039;DHT22;9652;49.014;12.052;2023-11-19T02:05:23;9.60;82.20
19039;DHT22;9652;49.014;12.052;2023-11-19T02:07:52;9.70;82.30
19039;DHT22;9652;49.014;12.052;2023-11-19T02:10:19;9.60;82.20
19039;DHT22;9652;49.014;12.052;2023-11-19T02:12:46;9.60;82.20
19039;DHT22;9652;49.014;12.052;2023-11-19T02:15:15;9.60;82.20
19039;DHT22;9652;49.014;12.052;2023-11-19T02:17:44;9.60;82.20
19039;DHT22;9652;49.014;12.052;2023-11-19T02:20:11;9.60;82.20
19039;DHT22;9652;49.014;12.052;2023-11-19T02:22:40;9.50;82.40
19039;DHT22;9652;49.014;12.052;2023-11-19T02:25:12;9.60;82.60
19039;DHT22;9652;49.014;12.052;2023-11-19T02:27:59;9.60;82.80
19039;DHT22;9652;49.014;12.052;2023-11-19T02:30:27;9.60;82.90
19039;DHT22;9652;49.014;12.052;2023-11-19T02:32:55;9.60;82.70
19039;DHT22;9652;49.014;12.052;2023-11-19T02:35:24;9.60;82.70
19039;DHT22;9652;49.014;12.052;2023-11-19T02:37:51;9.60;83.10
19039;DHT22;9652;49.014;12.052;2023-11-19T02:40:19;9.60;83.00
19039;DHT22;9652;49.014;12.052;2023-11-19T02:42:48;9.60;83.00
19039;DHT22;9652;49.014;12.052;2023-11-19T02:45:17;9.60;83.10
19039;DHT22;9652;49.014;12.052;2023-11-19T02:47:44;9.60;83.00
19039;DHT22;9652;49.014;12.052;2023-11-19T02:50:11;9.60;83.00
19039;DHT22;9652;49.014;12.052;2023-11-19T02:52:40;9.60;83.10
19039;DHT22;9652;49.014;12.052;2023-11-19T02:55:08;9.60;82.90
19039;DHT22;9652;49.014;12.052;2023-11-19T02:57:38;9.60;82.90
19039;DHT22;9652;49.014;12.052;2023-11-19T03:00:13;9.60;82.90
19039;DHT22;9652;49.014;12.052;2023-11-19T03:02:42;9.60;82.90
19039;DHT22;9652;49.014;12.052;2023-11-19T03:05:12;9.60;82.90
19039;DHT22;9652;49.014;12.052;2023-11-19T03:07:41;9.60;82.90
19039;DHT22;9652;49.014;12.052;2023-11-19T03:10:09;9.50;82.80
19039;DHT22;9652;49.014;12.052;2023-11-19T03:12:39;9.60;82.70
19039;DHT22;9652;49.014;12.052;2023-11-19T03:15:07;9.60;82.90
19039;DHT22;9652;49.014;12.052;2023-11-19T03:17:36;9.50;82.70
19039;DHT22;9652;49.014;12.052;2023-11-19T03:20:08;9.50;82.80
19039;DHT22;9652;49.014;12.052;2023-11-19T03:22:37;9.50;82.90
19039;DHT22;9652;49.014;12.052;2023-11-19T03:25:04;9.50;83.00
19039;DHT22;9652;49.014;12.052;2023-11-19T03:27:34;9.50;83.10
19039;DHT22;9652;49.014;12.052;2023-11-19T03:30:01;9.50;83.30
19039;DHT22;9652;49.014;12.052;2023-11-19T03:32:30;9.50;83.30
19039;DHT22;9652;49.014;12.052;2023-11-19T03:34:58;9.50;83.30
19039;DHT22;9652;49.014;12.052;2023-11-19T03:37:27;9.60;83.30
19039;DHT22;9652;49.014;12.052;2023-11-19T03:39:54;9.50;83.30
19039;DHT22;9652;49.014;12.052;2023-11-19T03:42:25;9.60;83.30
19039;DHT22;9652;49.014;12.052;2023-11-19T03:44:53;9.60;83.30
19039;DHT22;9652;49.014;12.052;2023-11-19T03:47:20;9.60;83.30
19039;DHT22;9652;49.014;12.052;2023-11-19T03:49:48;9.60;83.30
19039;DHT22;9652;49.014;12.052;2023-11-19T03:52:15;9.50;83.10
19039;DHT22;9652;49.014;12.052;2023-11-19T03:54:44;9.50;83.10
19039;DHT22;9652;49.014;12.052;2023-11-19T03:57:12;9.50;83.90
19039;DHT22;9652;49.014;12.052;2023-11-19T03:59:41;9.60;83.10
19039;DHT22;9652;49.014;12.052;2023-11-19T04:02:08;9.50;83.00
19039;DHT22;9652;49.014;12.052;2023-11-19T04:04:36;9.50;83.10
19039;DHT22;9652;49.014;12.052;2023-11-19T04:07:04;9.50;83.10
19039;DHT22;9652;49.014;12.052;2023-11-19T04:09:31;9.50;83.10
19039;DHT22;9652;49.014;12.052;2023-11-19T04:12:01;9.50;83.20
19039;DHT22;9652;49.014;12.052;2023-11-19T04:14:28;9.50;83.30
19039;DHT22;9652;49.014;12.052;2023-11-19T04:16:55;9.50;83.40
19039;DHT22;9652;49.014;12.052;2023-11-19T04:19:22;9.50;83.40
19039;DHT22;9652;49.014;12.052;2023-11-19T04:21:50;9.50;83.40
19039;DHT22;9652;49.014;12.052;2023-11-19T04:24:17;9.50;83.40
19039;DHT22;9652;49.014;12.052;2023-11-19T04:26:45;9.50;83.60
19039;DHT22;9652;49.014;12.052;2023-11-19T04:29:15;9.50;83.60
19039;DHT22;9652;49.014;12.052;2023-11-19T04:31:44;9.50;83.70
19039;DHT22;9652;49.014;12.052;2023-11-19T04:34:11;9.50;83.60
19039;DHT22;9652;49.014;12.052;2023-11-19T04:36:39;9.50;83.60
19039;DHT22;9652;49.014;12.052;2023-11-19T04:39:06;9.50;83.60
19039;DHT22;9652;49.014;12.052;2023-11-19T04:41:45;9.50;83.60
19039;DHT22;9652;49.014;12.052;2023-11-19T04:44:15;9.50;83.60
19039;DHT22;9652;49.014;12.052;2023-11-19T04:46:43;9.50;83.50
19039;DHT22;9652;49.014;12.052;2023-11-19T04:49:11;9.50;83.60
19039;DHT22;9652;49.014;12.052;2023-11-19T04:51:39;9.50;83.60
19039;DHT22;9652;49.014;12.052;2023-11-19T04:54:07;9.50;83.50
19039;DHT22;9652;49.014;12.052;2023-11-19T04:56:35;9.50;83.40
19039;DHT22;9652;49.014;12.052;2023-11-19T04:59:03;9.50;83.50
19039;DHT22;9652;49.014;12.052;2023-11-19T05:01:33;9.40;83.30
19039;DHT22;9652;49.014;12.052;2023-11-19T05:04:00;9.50;83.30
19039;DHT22;9652;49.014;12.052;2023-11-19T05:06:28;9.40;83.20
19039;DHT22;9652;49.014;12.052;2023-11-19T05:08:55;9.40;83.20
19039;DHT22;9652;49.014;12.052;2023-11-19T05:11:23;9.40;83.40
19039;DHT22;9652;49.014;12.052;2023-11-19T05:13:50;9.40;83.40
19039;DHT22;9652;49.014;12.052;2023-11-19T05:16:17;9.40;83.40
19039;DHT22;9652;49.014;12.052;2023-11-19T05:18:46;9.30;83.50
19039;DHT22;9652;49.014;12.052;2023-11-19T05:21:13;9.40;83.60
19039;DHT22;9652;49.014;12.052;2023-11-19T05:23:40;9.40;83.70
19039;DHT22;9652;49.014;12.052;2023-11-19T05:26:07;9.40;83.80
19039;DHT22;9652;49.014;12.052;2023-11-19T05:28:37;9.40;84.00
19039;DHT22;9652;49.014;12.052;2023-11-19T05:31:05;9.40;84.10
19039;DHT22;9652;49.014;12.052;2023-11-19T05:33:32;9.40;84.10
19039;DHT22;9652;49.014;12.052;2023-11-19T05:36:01;9.40;84.10
19039;DHT22;9652;49.014;12.052;2023-11-19T05:38:29;9.40;84.00
19039;DHT22;9652;49.014;12.052;2023-11-19T05:40:56;9.40;83.90
19039;DHT22;9652;49.014;12.052;2023-11-19T05:43:23;9.40;84.00
19039;DHT22;9652;49.014;12.052;2023-11-19T05:45:50;9.40;84.10
19039;DHT22;9652;49.014;12.052;2023-11-19T05:48:17;9.50;84.10
19039;DHT22;9652;49.014;12.052;2023-11-19T05:50:44;9.40;84.10
19039;DHT22;9652;49.014;12.052;2023-11-19T05:53:13;9.50;84.20
19039;DHT22;9652;49.014;12.052;2023-11-19T05:55:40;9.50;84.10
19039;DHT22;9652;49.014;12.052;2023-11-19T05:58:15;9.50;84.00
19039;DHT22;9652;49.014;12.052;2023-11-19T06:00:42;9.60;84.00
19039;DHT22;9652;49.014;12.052;2023-11-19T06:03:09;9.50;84.00
19039;DHT22;9652;49.014;12.052;2023-11-19T06:05:36;9.50;83.90
19039;DHT22;9652;49.014;12.052;2023-11-19T06:08:03;9.50;83.90
19039;DHT22;9652;49.014;12.052;2023-11-19T06:10:33;9.50;83.80
19039;DHT22;9652;49.014;12.052;2023-11-19T06:13:01;9.50;83.60
19039;DHT22;9652;49.014;12.052;2023-11-19T06:15:30;9.60;83.60
19039;DHT22;9652;49.014;12.052;2023-11-19T06:17:58;9.50;83.50
19039;DHT22;9652;49.014;12.052;2023-11-19T06:20:29;9.50;83.40
19039;DHT22;9652;49.014;12.052;2023-11-19T06:22:57;9.60;83.40
19039;DHT22;9652;49.014;12.052;2023-11-19T06:25:24;9.50;83.40
19039;DHT22;9652;49.014;12.052;2023-11-19T06:27:53;9.50;83.40
19039;DHT22;9652;49.014;12.052;2023-11-19T06:30:20;9.50;83.50
19039;DHT22;9652;49.014;12.052;2023-11-19T06:32:47;9.50;83.50
19039;DHT22;9652;49.014;12.052;2023-11-19T06:35:14;9.60;83.60
19039;DHT22;9652;49.014;12.052;2023-11-19T06:37:41;9.50;83.40
19039;DHT22;9652;49.014;12.052;2023-11-19T06:40:09;9.50;83.30
19039;DHT22;9652;49.014;12.052;2023-11-19T06:42:37;9.50;83.20
19039;DHT22;9652;49.014;12.052;2023-11-19T06:45:07;9.50;83.10
19039;DHT22;9652;49.014;12.052;2023-11-19T06:47:35;9.40;82.90
19039;DHT22;9652;49.014;12.052;2023-11-19T06:50:02;9.30;82.70
19039;DHT22;9652;49.014;12.052;2023-11-19T06:52:31;9.40;82.90
19039;DHT22;9652;49.014;12.052;2023-11-19T06:54:58;9.40;82.90
19039;DHT22;9652;49.014;12.052;2023-11-19T06:57:25;9.40;83.00
19039;DHT22;9652;49.014;12.052;2023-11-19T06:59:53;9.40;83.10
19039;DHT22;9652;49.014;12.052;2023-11-19T07:02:22;9.40;83.10
19039;DHT22;9652;49.014;12.052;2023-11-19T07:04:49;9.40;83.10
19039;DHT22;9652;49.014;12.052;2023-11-19T07:07:16;9.30;83.10
19039;DHT22;9652;49.014;12.052;2023-11-19T07:09:43;9.40;83.30
19039;DHT22;9652;49.014;12.052;2023-11-19T07:12:10;9.40;83.40
19039;DHT22;9652;49.014;12.052;2023-11-19T07:14:39;9.30;83.50
19039;DHT22;9652;49.014;12.052;2023-11-19T07:17:07;9.40;83.60
19039;DHT22;9652;49.014;12.052;2023-11-19T07:19:37;9.40;83.70
19039;DHT22;9652;49.014;12.052;2023-11-19T07:22:05;9.40;83.70
19039;DHT22;9652;49.014;12.052;2023-11-19T07:24:33;9.40;83.60
19039;DHT22;9652;49.014;12.052;2023-11-19T07:27:00;9.40;83.60
19039;DHT22;9652;49.014;12.052;2023-11-19T07:29:29;9.40;83.80
19039;DHT22;9652;49.014;12.052;2023-11-19T07:31:57;9.40;83.90
19039;DHT22;9652;49.014;12.052;2023-11-19T07:34:24;9.50;84.00
19039;DHT22;9652;49.014;12.052;2023-11-19T07:36:52;9.50;83.90
19039;DHT22;9652;49.014;12.052;2023-11-19T07:39:20;9.50;83.90
19039;DHT22;9652;49.014;12.052;2023-11-19T07:41:48;9.50;83.90
19039;DHT22;9652;49.014;12.052;2023-11-19T07:44:15;9.50;83.90
19039;DHT22;9652;49.014;12.052;2023-11-19T07:46:42;9.50;83.90
19039;DHT22;9652;49.014;12.052;2023-11-19T07:49:10;9.60;84.00
19039;DHT22;9652;49.014;12.052;2023-11-19T07:51:38;9.60;83.90
19039;DHT22;9652;49.014;12.052;2023-11-19T07:54:06;9.60;83.80
19039;DHT22;9652;49.014;12.052;2023-11-19T07:56:34;9.60;83.80
19039;DHT22;9652;49.014;12.052;2023-11-19T07:59:01;9.60;83.80
19039;DHT22;9652;49.014;12.052;2023-11-19T08:01:28;9.60;83.80
19039;DHT22;9652;49.014;12.052;2023-11-19T08:03:55;9.60;83.80
19039;DHT22;9652;49.014;12.052;2023-11-19T08:06:23;9.60;83.70
19039;DHT22;9652;49.014;12.052;2023-11-19T08:08:50;9.60;84.40
19039;DHT22;9652;49.014;12.052;2023-11-19T08:11:19;9.60;83.40
19039;DHT22;9652;49.014;12.052;2023-11-19T08:13:46;9.70;83.50
19039;DHT22;9652;49.014;12.052;2023-11-19T08:16:13;9.60;83.60
19039;DHT22;9652;49.014;12.052;2023-11-19T08:18:42;9.60;83.70
19039;DHT22;9652;49.014;12.052;2023-11-19T08:21:09;9.60;83.80
19039;DHT22;9652;49.014;12.052;2023-11-19T08:23:36;9.70;83.90
19039;DHT22;9652;49.014;12.052;2023-11-19T08:26:04;9.70;84.00
19039;DHT22;9652;49.014;12.052;2023-11-19T08:28:33;9.70;84.00
19039;DHT22;9652;49.014;12.052;2023-11-19T08:31:00;9.70;84.00
19039;DHT22;9652;49.014;12.052;2023-11-19T08:33:29;9.70;84.00
19039;DHT22;9652;49.014;12.052;2023-11-19T08:35:56;9.70;84.00
19039;DHT22;9652;49.014;12.052;2023-11-19T08:38:24;9.70;84.00
19039;DHT22;9652;49.014;12.052;2023-11-19T08:40:52;9.80;84.00
19039;DHT22;9652;49.014;12.052;2023-11-19T08:43:19;9.80;84.00
19039;DHT22;9652;49.014;12.052;2023-11-19T08:45:47;9.80;84.00
19039;DHT22;9652;49.014;12.052;2023-11-19T08:48:14;9.80;83.90
19039;DHT22;9652;49.014;12.052;2023-11-19T08:50:41;9.80;83.80
19039;DHT22;9652;49.014;12.052;2023-11-19T08:53:08;9.90;83.90
19039;DHT22;9652;49.014;12.052;2023-11-19T08:55:37;9.80;83.80
19039;DHT22;9652;49.014;12.052;2023-11-19T08:58:04;9.90;83.90
19039;DHT22;9652;49.014;12.052;2023-11-19T09:00:31;9.80;84.00
19039;DHT22;9652;49.014;12.052;2023-11-19T09:03:00;9.90;84.20
19039;DHT22;9652;49.014;12.052;2023-11-19T09:05:27;9.90;84.30
19039;DHT22;9652;49.014;12.052;2023-11-19T09:07:54;9.90;84.50
19039;DHT22;9652;49.014;12.052;2023-11-19T09:10:21;10.00;84.70
19039;DHT22;9652;49.014;12.052;2023-11-19T09:12:48;10.00;84.70
19039;DHT22;9652;49.014;12.052;2023-11-19T09:15:15;10.00;84.60
19039;DHT22;9652;49.014;12.052;2023-11-19T09:17:43;10.10;84.60
19039;DHT22;9652;49.014;12.052;2023-11-19T09:20:12;10.10;84.50
19039;DHT22;9652;49.014;12.052;2023-11-19T09:22:41;10.20;84.60
19039;DHT22;9652;49.014;12.052;2023-11-19T09:25:08;10.20;84.80
19039;DHT22;9652;49.014;12.052;2023-11-19T09:27:35;10.30;84.90
19039;DHT22;9652;49.014;12.052;2023-11-19T09:30:03;10.30;84.90
19039;DHT22;9652;49.014;12.052;2023-11-19T09:32:31;10.30;84.80
19039;DHT22;9652;49.014;12.052;2023-11-19T09:34:58;10.30;84.80
19039;DHT22;9652;49.014;12.052;2023-11-19T09:37:27;10.40;84.90
19039;DHT22;9652;49.014;12.052;2023-11-19T09:39:55;10.40;84.90
19039;DHT22;9652;49.014;12.052;2023-11-19T09:42:24;10.50;84.90
19039;DHT22;9652;49.014;12.052;2023-11-19T09:44:51;10.60;85.00
19039;DHT22;9652;49.014;12.052;2023-11-19T09:47:19;10.60;85.00
19039;DHT22;9652;49.014;12.052;2023-11-19T09:49:48;10.60;85.10
19039;DHT22;9652;49.014;12.052;2023-11-19T09:52:16;10.70;85.60
19039;DHT22;9652;49.014;12.052;2023-11-19T09:54:44;10.80;86.00
19039;DHT22;9652;49.014;12.052;2023-11-19T09:57:12;10.90;86.40
19039;DHT22;9652;49.014;12.052;2023-11-19T09:59:43;11.00;86.60
19039;DHT22;9652;49.014;12.052;2023-11-19T10:02:12;11.50;87.30
19039;DHT22;9652;49.014;12.052;2023-11-19T10:04:42;11.40;86.90
19039;DHT22;9652;49.014;12.052;2023-11-19T10:07:13;11.40;86.30
19039;DHT22;9652;49.014;12.052;2023-11-19T10:09:40;11.50;86.20
19039;DHT22;9652;49.014;12.052;2023-11-19T10:12:08;11.60;86.20
19039;DHT22;9652;49.014;12.052;2023-11-19T10:14:37;11.70;85.80
19039;DHT22;9652;49.014;12.052;2023-11-19T10:17:07;11.80;85.40
19039;DHT22;9652;49.014;12.052;2023-11-19T10:19:34;11.80;84.90
19039;DHT22;9652;49.014;12.052;2023-11-19T10:22:04;11.90;84.80
19039;DHT22;9652;49.014;12.052;2023-11-19T10:24:32;12.00;84.50
19039;DHT22;9652;49.014;12.052;2023-11-19T10:27:00;12.00;84.00
19039;DHT22;9652;49.014;12.052;2023-11-19T10:29:30;12.00;83.90
19039;DHT22;9652;49.014;12.052;2023-11-19T10:31:58;12.00;84.00
19039;DHT22;9652;49.014;12.052;2023-11-19T10:34:26;12.00;84.10
19039;DHT22;9652;49.014;12.052;2023-11-19T10:36:55;12.10;84.20
19039;DHT22;9652;49.014;12.052;2023-11-19T10:39:22;12.10;83.80
19039;DHT22;9652;49.014;12.052;2023-11-19T10:41:50;12.10;83.60
19039;DHT22;9652;49.014;12.052;2023-11-19T10:44:34;12.10;83.50
19039;DHT22;9652;49.014;12.052;2023-11-19T10:47:02;12.10;83.60
19039;DHT22;9652;49.014;12.052;2023-11-19T10:49:33;12.10;83.90
19039;DHT22;9652;49.014;12.052;2023-11-19T10:52:01;12.10;84.10
19039;DHT22;9652;49.014;12.052;2023-11-19T10:54:34;12.10;84.20
19039;DHT22;9652;49.014;12.052;2023-11-19T10:57:02;12.30;84.30
19039;DHT22;9652;49.014;12.052;2023-11-19T10:59:33;12.20;84.50
19039;DHT22;9652;49.014;12.052;2023-11-19T11:02:05;12.10;85.00
19039;DHT22;9652;49.014;12.052;2023-11-19T11:04:40;12.20;85.80
19039;DHT22;9652;49.014;12.052;2023-11-19T11:07:09;12.20;86.50
19039;DHT22;9652;49.014;12.052;2023-11-19T11:09:37;12.20;86.90
19039;DHT22;9652;49.014;12.052;2023-11-19T11:12:06;12.30;87.00
19039;DHT22;9652;49.014;12.052;2023-11-19T11:14:38;12.30;87.20
19039;DHT22;9652;49.014;12.052;2023-11-19T11:17:08;12.40;87.30
19039;DHT22;9652;49.014;12.052;2023-11-19T11:19:38;12.50;87.50
19039;DHT22;9652;49.014;12.052;2023-11-19T11:22:06;12.60;87.90
19039;DHT22;9652;49.014;12.052;2023-11-19T11:24:52;12.60;88.40
19039;DHT22;9652;49.014;12.052;2023-11-19T11:28:20;12.70;89.10
19039;DHT22;9652;49.014;12.052;2023-11-19T11:31:12;12.90;90.00
19039;DHT22;9652;49.014;12.052;2023-11-19T11:34:13;13.00;88.90
19039;DHT22;9652;49.014;12.052;2023-11-19T11:37:07;13.10;88.40
19039;DHT22;9652;49.014;12.052;2023-11-19T11:39:40;13.20;88.30
19039;DHT22;9652;49.014;12.052;2023-11-19T11:42:35;13.20;88.30
19039;DHT22;9652;49.014;12.052;2023-11-19T11:45:05;13.30;88.60
19039;DHT22;9652;49.014;12.052;2023-11-19T11:48:12;13.40;88.10
19039;DHT22;9652;49.014;12.052;2023-11-19T11:50:50;13.40;88.20
19039;DHT22;9652;49.014;12.052;2023-11-19T11:53:20;13.40;88.10
19039;DHT22;9652;49.014;12.052;2023-11-19T11:55:55;13.80;88.60
19039;DHT22;9652;49.014;12.052;2023-11-19T11:58:36;13.50;88.90
19039;DHT22;9652;49.014;12.052;2023-11-19T12:01:05;14.20;90.00
19039;DHT22;9652;49.014;12.052;2023-11-19T12:03:33;13.80;89.70
19039;DHT22;9652;49.014;12.052;2023-11-19T12:06:01;13.90;89.90
19039;DHT22;9652;49.014;12.052;2023-11-19T12:08:29;13.90;90.00
19039;DHT22;9652;49.014;12.052;2023-11-19T12:11:01;14.50;90.30
19039;DHT22;9652;49.014;12.052;2023-11-19T12:13:46;14.20;90.30
19039;DHT22;9652;49.014;12.052;2023-11-19T12:16:19;14.30;90.30
19039;DHT22;9652;49.014;12.052;2023-11-19T12:18:49;14.50;90.30
19039;DHT22;9652;49.014;12.052;2023-11-19T12:21:29;14.60;90.30
19039;DHT22;9652;49.014;12.052;2023-11-19T12:23:59;14.70;90.20
19039;DHT22;9652;49.014;12.052;2023-11-19T12:26:37;14.90;90.00
19039;DHT22;9652;49.014;12.052;2023-11-19T12:29:05;14.90;90.00
19039;DHT22;9652;49.014;12.052;2023-11-19T12:31:34;15.00;89.60
19039;DHT22;9652;49.014;12.052;2023-11-19T12:34:09;15.00;89.40
19039;DHT22;9652;49.014;12.052;2023-11-19T12:36:39;15.10;88.80
19039;DHT22;9652;49.014;12.052;2023-11-19T12:39:08;15.10;88.10
19039;DHT22;9652;49.014;12.052;2023-11-19T12:41:53;15.10;87.90
19039;DHT22;9652;49.014;12.052;2023-11-19T12:44:21;15.10;87.70
19039;DHT22;9652;49.014;12.052;2023-11-19T12:47:03;15.10;87.30
19039;DHT22;9652;49.014;12.052;2023-11-19T12:49:33;15.10;87.20
19039;DHT22;9652;49.014;12.052;2023-11-19T12:52:00;15.10;86.80
19039;DHT22;9652;49.014;12.052;2023-11-19T12:54:33;15.10;86.70
19039;DHT22;9652;49.014;12.052;2023-11-19T12:57:01;15.00;86.80
19039;DHT22;9652;49.014;12.052;2023-11-19T12:59:28;15.00;87.10
19039;DHT22;9652;49.014;12.052;2023-11-19T13:01:56;15.00;87.70
19039;DHT22;9652;49.014;12.052;2023-11-19T13:04:27;15.00;87.90
19039;DHT22;9652;49.014;12.052;2023-11-19T13:06:57;15.10;87.90
19039;DHT22;9652;49.014;12.052;2023-11-19T13:09:25;15.10;87.90
19039;DHT22;9652;49.014;12.052;2023-11-19T13:11:53;15.10;87.90
19039;DHT22;9652;49.014;12.052;2023-11-19T13:14:22;15.10;87.70
19039;DHT22;9652;49.014;12.052;2023-11-19T13:16:49;15.10;87.50
19039;DHT22;9652;49.014;12.052;2023-11-19T13:19:16;15.10;87.20
19039;DHT22;9652;49.014;12.052;2023-11-19T13:21:44;15.10;87.20
19039;DHT22;9652;49.014;12.052;2023-11-19T13:24:14;15.10;87.60
19039;DHT22;9652;49.014;12.052;2023-11-19T13:26:41;15.20;88.10
19039;DHT22;9652;49.014;12.052;2023-11-19T13:29:08;15.20;88.50
19039;DHT22;9652;49.014;12.052;2023-11-19T13:31:36;15.30;88.60
19039;DHT22;9652;49.014;12.052;2023-11-19T13:34:03;15.30;88.70
19039;DHT22;9652;49.014;12.052;2023-11-19T13:36:32;15.40;88.80
19039;DHT22;9652;49.014;12.052;2023-11-19T13:38:59;15.40;88.80
19039;DHT22;9652;49.014;12.052;2023-11-19T13:41:28;15.50;88.30
19039;DHT22;9652;49.014;12.052;2023-11-19T13:43:55;15.60;88.20
19039;DHT22;9652;49.014;12.052;2023-11-19T13:46:22;15.60;88.00
19039;DHT22;9652;49.014;12.052;2023-11-19T13:48:49;15.70;87.70
19039;DHT22;9652;49.014;12.052;2023-11-19T13:51:16;15.70;87.40
19039;DHT22;9652;49.014;12.052;2023-11-19T13:53:43;15.80;87.20
19039;DHT22;9652;49.014;12.052;2023-11-19T13:56:10;15.80;86.80
19039;DHT22;9652;49.014;12.052;2023-11-19T13:58:39;15.80;86.50
19039;DHT22;9652;49.014;12.052;2023-11-19T14:01:06;15.80;86.20
19039;DHT22;9652;49.014;12.052;2023-11-19T14:03:34;15.80;85.90
19039;DHT22;9652;49.014;12.052;2023-11-19T14:06:01;15.80;85.40
19039;DHT22;9652;49.014;12.052;2023-11-19T14:08:28;15.80;85.00
19039;DHT22;9652;49.014;12.052;2023-11-19T14:10:55;15.70;84.60
19039;DHT22;9652;49.014;12.052;2023-11-19T14:13:23;15.70;84.40
19039;DHT22;9652;49.014;12.052;2023-11-19T14:15:51;15.60;84.10
19039;DHT22;9652;49.014;12.052;2023-11-19T14:18:18;15.60;83.90
19039;DHT22;9652;49.014;12.052;2023-11-19T14:20:45;15.60;84.10
19039;DHT22;9652;49.014;12.052;2023-11-19T14:23:12;15.50;84.20
19039;DHT22;9652;49.014;12.052;2023-11-19T14:25:40;15.50;84.30
19039;DHT22;9652;49.014;12.052;2023-11-19T14:28:07;15.50;84.30
19039;DHT22;9652;49.014;12.052;2023-11-19T14:30:34;15.50;84.30
19039;DHT22;9652;49.014;12.052;2023-11-19T14:33:02;15.40;84.10
19039;DHT22;9652;49.014;12.052;2023-11-19T14:35:30;15.40;83.80
19039;DHT22;9652;49.014;12.052;2023-11-19T14:37:58;15.40;83.80
19039;DHT22;9652;49.014;12.052;2023-11-19T14:40:26;15.40;83.60
19039;DHT22;9652;49.014;12.052;2023-11-19T14:42:53;15.30;83.30
19039;DHT22;9652;49.014;12.052;2023-11-19T14:45:20;15.30;83.00
19039;DHT22;9652;49.014;12.052;2023-11-19T14:47:48;15.20;82.80
19039;DHT22;9652;49.014;12.052;2023-11-19T14:50:17;15.20;82.60
19039;DHT22;9652;49.014;12.052;2023-11-19T14:52:44;15.10;82.30
19039;DHT22;9652;49.014;12.052;2023-11-19T14:55:11;15.10;82.50
19039;DHT22;9652;49.014;12.052;2023-11-19T14:57:38;15.00;82.70
19039;DHT22;9652;49.014;12.052;2023-11-19T15:00:08;15.00;82.70
19039;DHT22;9652;49.014;12.052;2023-11-19T15:02:39;14.90;82.30
19039;DHT22;9652;49.014;12.052;2023-11-19T15:05:07;14.90;82.00
19039;DHT22;9652;49.014;12.052;2023-11-19T15:07:37;14.80;81.80
19039;DHT22;9652;49.014;12.052;2023-11-19T15:10:06;14.80;81.80
19039;DHT22;9652;49.014;12.052;2023-11-19T15:12:36;14.70;81.90
19039;DHT22;9652;49.014;12.052;2023-11-19T15:15:07;14.70;82.00
19039;DHT22;9652;49.014;12.052;2023-11-19T15:17:35;14.60;82.00
19039;DHT22;9652;49.014;12.052;2023-11-19T15:20:03;14.60;82.00
19039;DHT22;9652;49.014;12.052;2023-11-19T15:22:31;14.50;81.80
19039;DHT22;9652;49.014;12.052;2023-11-19T15:24:59;14.50;81.80
19039;DHT22;9652;49.014;12.052;2023-11-19T15:27:27;14.40;81.60
19039;DHT22;9652;49.014;12.052;2023-11-19T15:29:54;14.40;81.60
19039;DHT22;9652;49.014;12.052;2023-11-19T15:32:21;14.30;81.40
19039;DHT22;9652;49.014;12.052;2023-11-19T15:34:48;14.30;81.40
19039;DHT22;9652;49.014;12.052;2023-11-19T15:37:15;14.30;81.40
19039;DHT22;9652;49.014;12.052;2023-11-19T15:39:42;14.10;81.20
19039;DHT22;9652;49.014;12.052;2023-11-19T15:42:11;14.10;81.10
19039;DHT22;9652;49.014;12.052;2023-11-19T15:44:38;14.10;81.10
19039;DHT22;9652;49.014;12.052;2023-11-19T15:47:05;14.10;81.20
19039;DHT22;9652;49.014;12.052;2023-11-19T15:49:33;14.00;81.10
19039;DHT22;9652;49.014;12.052;2023-11-19T15:52:00;14.10;81.10